x

Tillamook, Or - 85 Nm Wnw Of Tillamook, Or (46089) Wave Buoy

8:50pm - Thu 28th Jul 2016 All times are PDT. -7 hours from GMT.

  • Sig Wave height 8.2ft
  • Swell Direction
  • Peak Period 8s
  • Average Period 6s
  • Wind
    25mph, 29mph gusts
  • Sea Temp 63°f
  • Air Temp 63°f
  • Sea Pressure 1018.9mb
  • Tillamook, Or - 85 Nm Wnw Of Tillamook, Or
  • Tillamook, Or - 85 Nm Wnw Of Tillamook, Or

More Historic Weather Station data

Upgrade to MSW Pro to gain access to the past 30 days of data for over 8000 Wavebouys and Weather Stations around the globe.

Join Pro

Comparision Forecast

View Surf forecast
   
Thu 07/28 8:50pm 8ft 8s 6s 25 29 mph 1018.9mb 63f 63f
7:50pm 7.5ft 8s 6s 25 27 mph 1018.9mb 63f 63f
6:50pm 8.5ft 8s 6s 22 27 mph 1019.5mb 63f 63f
5:50pm 7.5ft 7s 6s 25 31 mph 1019.9mb 63f 63f
3:50pm 7.5ft 8s 6s 27 34 mph 1020.4mb 63f 63f
2:50pm 7ft 8s 6s 25 29 mph 1020.8mb 63f 63f
1:50pm 7ft 8s 6s 22 27 mph 1021.2mb 63f 63f
12:50pm 7ft 8s 6s 20 25 mph 1021.5mb 63f 63f
10:50am 7ft 8s 6s 20 27 mph 1021.5mb 63f 63f
9:50am 7.5ft 8s 6s 20 25 mph 1021.6mb 63f 62f
8:50am 7ft 8s 6s 18 25 mph 1021.9mb 63f 62f
7:50am 7ft 8s 6s 20 25 mph 1021.9mb 63f 62f
6:50am 7ft 8s 6s 22 25 mph 1021.8mb 63f 62f
5:50am 7ft 7s 6s 22 27 mph 1021.4mb 63f 62f
4:50am 7ft 7s 6s 22 29 mph 1021.5mb 63f 61f
3:50am 6.5ft 7s 5s 22 29 mph 1021.8mb 63f 61f
2:50am 7ft 8s 5s 22 27 mph 1021.6mb 63f 61f
1:50am 6.5ft 8s 5s 22 27 mph 1021.6mb 63f 61f
12:50am 6ft 8s 6s 22 27 mph 1021.9mb 63f 61f
Wed 07/27 11:50pm 7ft 8s 6s 20 25 mph 1021.9mb 63f 61f
10:50pm 7ft 7s 6s 20 27 mph 1022.1mb 63f 61f
9:50pm 6.5ft 8s 6s 22 27 mph 1021.9mb 63f 62f
8:50pm 7ft 8s 6s 22 29 mph 1021.4mb 63f 62f
7:50pm 7ft 8s 6s 25 29 mph 1021mb 63f 62f
6:50pm 6.5ft 8s 6s 22 27 mph 1021.4mb 63f 62f
5:50pm 6.5ft 8s 5s 25 29 mph 1021.9mb 63f 62f
4:50pm 7ft 8s 6s 22 27 mph 1022.3mb 63f 62f
3:50pm 6.5ft 8s 6s 22 27 mph 1022.2mb 63f 62f
2:50pm 6.5ft 8s 6s 22 27 mph 1022.4mb 63f 63f
1:50pm 7ft 8s 6s 22 27 mph 1022.2mb 63f 63f
12:50pm 7ft 8s 6s 22 27 mph 1022.5mb 63f 62f
11:50am 7ft 8s 6s 22 27 mph 1022.6mb 63f 62f
10:50am 6.5ft 8s 6s 20 25 mph 1022.6mb 63f 62f
9:50am 6.5ft 8s 6s 20 22 mph 1022.5mb 63f 62f
8:50am 6.5ft 8s 5s 20 27 mph 1022.2mb 63f 62f
7:50am 6ft 7s 5s 20 25 mph 1021.9mb 63f 62f
6:50am 5.5ft 7s 5s 22 27 mph 1021.6mb 63f 62f
5:50am 5.5ft 6s 5s 20 27 mph 1021.1mb 63f 62f
4:50am 5ft 7s 5s 18 22 mph 1021.2mb 63f 62f
3:50am 6ft 6s 5s 20 25 mph 1021mb 63f 62f
2:50am 6ft 8s 5s 22 27 mph 1021.2mb 63f 62f
1:50am 6ft 9s 5s 22 25 mph 1021.5mb 63f 62f
12:50am 6ft 6s 5s 20 27 mph 1021.7mb 63f 62f
Tue 07/26 11:50pm 6ft 7s 5s 20 25 mph 1022.3mb 63f 62f
10:50pm 6ft 5s 5s 20 25 mph 1022.5mb 63f 62f
9:50pm 6ft 7s 6s 18 22 mph 1022.5mb 63f 62f
8:50pm 6ft 8s 5s 22 27 mph 1022.1mb 63f 61f
7:50pm 6ft 9s 5s 20 25 mph 1022mb 63f 62f
6:50pm 6ft 10s 6s 18 22 mph 1022.4mb 63f 62f
5:50pm 5.5ft 10s 6s 18 22 mph 1022.7mb 63f 62f
4:50pm 5ft 10s 5s 18 20 mph 1022.8mb 63f 62f
3:50pm 5ft 10s 6s 18 22 mph 1023.2mb 63f 62f
2:50pm 5.5ft 10s 6s 18 20 mph 1023.4mb 63f 61f
1:50pm 5.5ft 10s 6s 20 22 mph 1023.4mb 63f 60f
12:50pm 6ft 10s 6s 16 18 mph 1023.7mb 63f 61f
11:50am 5.5ft 9s 6s 16 20 mph 1023.6mb 63f 61f
10:50am 5.5ft 9s 6s 16 18 mph 1023.6mb 63f 60f
9:50am 6ft 10s 6s 16 20 mph 1023.4mb 63f 60f
8:50am 5ft 11s 6s 16 22 mph 1023.4mb 63f 61f
7:50am 5.5ft 10s 6s 16 20 mph 1023.1mb 63f 61f
6:50am 5.5ft 10s 6s 16 20 mph 1022.8mb 63f 61f
5:50am 5.5ft 10s 6s 16 20 mph 1022.5mb 63f 61f
4:50am 6ft 10s 6s 18 20 mph 1022.3mb 63f 60f
3:50am 5.5ft 11s 6s 16 20 mph 1022.1mb 63f 61f
2:50am 6ft 7s 6s 16 20 mph 1022.2mb 63f 61f
1:50am 6ft 11s 6s 18 20 mph 1022.3mb 63f 61f
12:50am 6ft 10s 6s 16 20 mph 1022.3mb 63f 61f
Mon 07/25 11:50pm 6.5ft 6s 6s 20 22 mph 1022.1mb 63f 61f
10:50pm 6ft 10s 6s 18 22 mph 1022.2mb 63f 61f
9:50pm 6.5ft 10s 6s 18 22 mph 1021.9mb 63f 61f
8:50pm 6ft 10s 6s 20 25 mph 1021.7mb 63f 61f
7:50pm 6ft 10s 6s 18 22 mph 1021.4mb 63f 62f
6:50pm 5.5ft 6s 6s 18 25 mph 1021.3mb 63f 61f
5:50pm 5.5ft 10s 6s 20 22 mph 1021.1mb 64f 61f
4:50pm 5ft 11s 6s 16 20 mph 1021.3mb 64f 61f
3:50pm 5ft 11s 6s 16 20 mph 1021.4mb 64f 61f
2:50pm 5.5ft 10s 6s 16 18 mph 1021.5mb 64f 62f
1:50pm 5ft 9s 6s 16 18 mph 1021.4mb 64f 62f
12:50pm 5ft 6s 5s 16 18 mph 1021.4mb 64f 61f
10:50am 4.5ft 8s 5s 16 18 mph 1021.2mb 63f 61f
9:50am 4.5ft 8s 5s 16 20 mph 1020.9mb 63f 61f
8:50am 4.5ft 6s 5s 16 18 mph 1020.7mb 63f 61f
7:50am 5ft 7s 5s 16 18 mph 1020.4mb 63f 61f
6:50am 4.5ft 15s 5s 16 18 mph 1020mb 63f 61f
5:50am 4.5ft 8s 5s 16 20 mph 1019.8mb 63f 61f
4:50am 4.5ft 5s 5s 18 22 mph 1019.5mb 63f 61f